MYJ weather

Matsuyama Airport
Matsuyama, Ehime Prefecture, Japan

Public forecast

Using degrees Celsius for public forecast. Weather courtesy of forecast.io.

Current aviation weather report (METAR) for Matsuyama Airport

Retrieved 2019/12/06 05:00 UTC (25 minutes ago):

RJOM 060500Z 02008KT 9999 FEW030 BKN/// 10/M01 Q1027

Aviation forecast (TAF) for Matsuyama Airport

Retrieved 2019-12-06 00:36 UTC (5 hours ago):

TAF RJOM 052307Z 0600/0706 36009KT 9999 FEW030 SCT045 BECMG 0607/0609 08007KT BECMG 0700/0703 01007KT